Time;durP1;ratioP1;P1;durP2;ratioP2;P2;SDS_P1;SDS_P2;PMS_P1;PMS_P2;Temp;Humidity;BMP_temperature;BMP_pressure;BME280_temperature;BME280_humidity;BME280_pressure;Samples;Min_cycle;Max_cycle;Signal;HPM_P1;HPM_P2
2021/12/15 00:00:38;;;;;;;18.60;11.97;;;;;;;;;;5085566;28;20570;-73
2021/12/15 00:03:05;;;;;;;18.07;10.87;;;;;;;;;;5088392;28;20444;-72
2021/12/15 00:05:32;;;;;;;17.60;12.20;;;;;;;;;;5089448;28;20439;-72
2021/12/15 00:07:59;;;;;;;19.60;13.27;;;;;;;;;;5088294;28;20537;-72
2021/12/15 00:10:25;;;;;;;19.07;11.87;;;;;;;;;;5089405;28;20783;-72
2021/12/15 00:12:52;;;;;;;15.10;11.00;;;;;;;;;;5088891;28;20924;-72
2021/12/15 00:15:18;;;;;;;19.57;12.90;;;;;;;;;;5089889;28;20776;-73
2021/12/15 00:17:44;;;;;;;16.80;11.77;;;;;;;;;;5089643;28;20477;-72
2021/12/15 00:20:12;;;;;;;20.80;12.60;;;;;;;;;;5087388;28;20439;-72
2021/12/15 00:22:39;;;;;;;20.27;13.17;;;;;;;;;;5088911;28;20979;-72
2021/12/15 00:25:05;;;;;;;19.00;13.83;;;;;;;;;;5089521;28;20436;-71
2021/12/15 00:27:32;;;;;;;20.83;12.33;;;;;;;;;;5090006;28;20428;-72
2021/12/15 00:29:58;;;;;;;20.33;12.03;;;;;;;;;;5088172;28;20436;-73
2021/12/15 00:32:24;;;;;;;18.40;12.33;;;;;;;;;;5088709;28;20428;-72
2021/12/15 00:34:51;;;;;;;18.43;12.87;;;;;;;;;;5089582;28;20531;-72
2021/12/15 00:37:18;;;;;;;15.80;11.43;;;;;;;;;;5089133;28;20488;-71
2021/12/15 00:39:44;;;;;;;19.10;12.33;;;;;;;;;;5088763;28;20424;-73
2021/12/15 00:42:10;;;;;;;22.93;11.63;;;;;;;;;;5088884;28;20429;-72
2021/12/15 00:44:36;;;;;;;15.57;11.60;;;;;;;;;;5089431;28;20928;-72
2021/12/15 00:47:02;;;;;;;13.93;10.40;;;;;;;;;;5087577;28;20443;-72
2021/12/15 00:49:29;;;;;;;20.10;12.17;;;;;;;;;;5093067;28;20448;-72
2021/12/15 00:51:55;;;;;;;15.17;12.70;;;;;;;;;;5091850;28;20470;-72
2021/12/15 00:54:22;;;;;;;18.13;13.10;;;;;;;;;;5093834;28;20416;-72
2021/12/15 00:56:49;;;;;;;18.50;11.90;;;;;;;;;;5093318;28;20472;-73
2021/12/15 00:59:15;;;;;;;16.10;12.40;;;;;;;;;;5092997;28;20420;-72
2021/12/15 01:01:41;;;;;;;19.00;12.90;;;;;;;;;;5092865;28;20445;-72
2021/12/15 01:04:08;;;;;;;21.87;12.63;;;;;;;;;;5093713;28;20485;-71
2021/12/15 01:06:34;;;;;;;16.87;12.23;;;;;;;;;;5092360;28;20428;-73
2021/12/15 01:09:03;;;;;;;24.00;13.20;;;;;;;;;;5092517;28;20939;-72
2021/12/15 01:19:52;;;;;;;17.97;11.57;;;;;;;;;;5092916;28;20980;-72
2021/12/15 01:22:38;;;;;;;26.77;13.43;;;;;;;;;;5092735;28;20441;-71
2021/12/15 01:25:07;;;;;;;19.67;13.40;;;;;;;;;;5093042;28;20464;-72
2021/12/15 01:27:33;;;;;;;18.70;12.57;;;;;;;;;;5091604;28;20958;-72
2021/12/15 01:29:59;;;;;;;21.60;13.23;;;;;;;;;;5092245;28;20432;-72
2021/12/15 01:32:25;;;;;;;18.77;13.30;;;;;;;;;;5091683;28;20442;-71
2021/12/15 01:34:53;;;;;;;21.40;13.90;;;;;;;;;;5091496;28;20938;-71
2021/12/15 01:37:19;;;;;;;17.70;11.90;;;;;;;;;;5092254;28;20483;-73
2021/12/15 01:39:46;;;;;;;31.10;13.70;;;;;;;;;;5092159;28;20807;-73
2021/12/15 01:42:12;;;;;;;18.80;13.10;;;;;;;;;;5092262;28;21182;-72
2021/12/15 01:47:24;;;;;;;22.70;14.40;;;;;;;;;;5091817;28;20973;-72
2021/12/15 01:49:51;;;;;;;19.63;13.00;;;;;;;;;;5091780;28;20420;-72
2021/12/15 01:52:28;;;;;;;24.47;13.90;;;;;;;;;;5092349;28;20637;-72
2021/12/15 01:55:03;;;;;;;21.87;14.20;;;;;;;;;;5092529;28;21891;-72
2021/12/15 01:57:30;;;;;;;22.30;14.13;;;;;;;;;;5091479;28;20987;-72
2021/12/15 01:59:58;;;;;;;22.27;14.30;;;;;;;;;;5091433;28;20515;-72
2021/12/15 02:02:25;;;;;;;23.97;15.00;;;;;;;;;;5091461;28;20471;-72
2021/12/15 02:04:52;;;;;;;25.10;13.70;;;;;;;;;;5090224;28;20421;-72
2021/12/15 02:07:19;;;;;;;21.20;14.27;;;;;;;;;;5090650;28;20943;-72
2021/12/15 02:12:19;;;;;;;22.17;13.43;;;;;;;;;;5090938;28;20445;-72
2021/12/15 02:14:45;;;;;;;27.83;13.90;;;;;;;;;;5092031;28;20427;-72
2021/12/15 02:17:11;;;;;;;20.77;14.23;;;;;;;;;;5090237;28;20599;-71
2021/12/15 02:19:37;;;;;;;17.00;12.10;;;;;;;;;;5090818;28;20447;-72
2021/12/15 02:22:03;;;;;;;21.57;12.83;;;;;;;;;;5091539;28;20501;-71
2021/12/15 02:24:34;;;;;;;22.07;11.53;;;;;;;;;;5089961;28;20440;-72
2021/12/15 02:27:01;;;;;;;16.77;10.27;;;;;;;;;;5091256;28;20472;-72
2021/12/15 02:29:31;;;;;;;20.03;12.27;;;;;;;;;;5090666;28;20947;-71
2021/12/15 02:32:08;;;;;;;22.80;12.70;;;;;;;;;;5091257;28;20444;-72
2021/12/15 02:37:21;;;;;;;15.87;11.17;;;;;;;;;;5091055;28;21016;-72
2021/12/15 02:40:10;;;;;;;15.00;10.50;;;;;;;;;;5090903;28;20431;-73
2021/12/15 02:42:38;;;;;;;20.43;10.97;;;;;;;;;;5091567;28;20515;-73
2021/12/15 02:45:06;;;;;;;18.67;12.37;;;;;;;;;;5090655;28;20440;-73
2021/12/15 02:47:32;;;;;;;19.27;11.50;;;;;;;;;;5091107;28;20476;-73
2021/12/15 02:49:59;;;;;;;16.10;11.20;;;;;;;;;;5090113;28;20439;-73
2021/12/15 02:52:25;;;;;;;18.20;11.60;;;;;;;;;;5091559;28;20474;-72
2021/12/15 02:54:51;;;;;;;19.97;10.63;;;;;;;;;;5091522;28;20432;-73
2021/12/15 02:57:18;;;;;;;17.60;10.80;;;;;;;;;;5088555;28;20584;-72
2021/12/15 03:02:48;;;;;;;19.07;11.50;;;;;;;;;;5089940;28;20953;-72
2021/12/15 03:05:23;;;;;;;30.10;10.37;;;;;;;;;;5090085;28;20869;-72
2021/12/15 03:08:05;;;;;;;19.00;12.90;;;;;;;;;;5089842;28;20449;-71
2021/12/15 03:16:02;;;;;;;14.53;9.83;;;;;;;;;;5088551;28;20467;-72
2021/12/15 03:18:29;;;;;;;17.80;11.20;;;;;;;;;;5089694;28;20448;-72
2021/12/15 03:20:58;;;;;;;15.57;9.40;;;;;;;;;;5089187;28;20424;-71
2021/12/15 03:23:36;;;;;;;17.80;10.23;;;;;;;;;;5089675;28;20439;-72
2021/12/15 03:26:03;;;;;;;15.50;10.13;;;;;;;;;;5089870;28;20507;-71
2021/12/15 03:36:52;;;;;;;15.30;10.37;;;;;;;;;;5089910;28;20484;-72
2021/12/15 03:39:18;;;;;;;16.80;11.03;;;;;;;;;;5089756;28;20515;-71
2021/12/15 03:41:44;;;;;;;17.47;9.80;;;;;;;;;;5090253;28;20438;-72
2021/12/15 03:44:10;;;;;;;16.60;10.57;;;;;;;;;;5089536;28;20903;-71
2021/12/15 03:46:36;;;;;;;14.33;9.40;;;;;;;;;;5089243;28;20468;-71
2021/12/15 03:49:02;;;;;;;14.37;9.97;;;;;;;;;;5088158;28;20449;-71
2021/12/15 03:51:28;;;;;;;14.00;9.97;;;;;;;;;;5088482;28;20498;-71
2021/12/15 03:53:54;;;;;;;17.03;9.53;;;;;;;;;;5090362;28;20431;-71
2021/12/15 03:56:20;;;;;;;23.50;10.03;;;;;;;;;;5089903;28;20484;-71
2021/12/15 03:58:48;;;;;;;15.00;10.57;;;;;;;;;;5088146;28;20587;-72
2021/12/15 04:01:16;;;;;;;16.70;9.70;;;;;;;;;;5088715;28;20421;-71
2021/12/15 04:03:44;;;;;;;17.40;10.60;;;;;;;;;;5089245;28;20897;-71
2021/12/15 04:06:12;;;;;;;17.00;10.47;;;;;;;;;;5088787;28;20432;-71
2021/12/15 04:08:40;;;;;;;14.10;10.70;;;;;;;;;;5089861;28;20426;-72
2021/12/15 04:11:07;;;;;;;15.37;9.77;;;;;;;;;;5088858;28;20858;-71
2021/12/15 04:13:33;;;;;;;13.50;10.70;;;;;;;;;;5089975;28;20464;-71
2021/12/15 04:16:06;;;;;;;17.77;9.20;;;;;;;;;;5089058;28;20504;-71
2021/12/15 04:18:32;;;;;;;14.70;10.30;;;;;;;;;;5089397;28;20433;-70
2021/12/15 04:20:58;;;;;;;18.03;10.20;;;;;;;;;;5089144;28;20421;-71
2021/12/15 04:23:24;;;;;;;15.33;10.43;;;;;;;;;;5089613;28;20461;-71
2021/12/15 04:25:52;;;;;;;21.90;10.13;;;;;;;;;;5089077;28;20476;-71
2021/12/15 04:28:20;;;;;;;12.47;9.60;;;;;;;;;;5088213;28;20464;-71
2021/12/15 04:30:49;;;;;;;18.47;10.43;;;;;;;;;;5088522;28;20531;-71
2021/12/15 04:33:23;;;;;;;17.13;10.20;;;;;;;;;;5089183;28;20448;-71
2021/12/15 04:35:49;;;;;;;16.57;10.70;;;;;;;;;;5087700;28;20515;-71
2021/12/15 04:38:15;;;;;;;16.63;10.10;;;;;;;;;;5088078;28;20539;-71
2021/12/15 04:40:42;;;;;;;17.30;10.50;;;;;;;;;;5088491;28;20428;-71
2021/12/15 04:43:08;;;;;;;15.57;11.40;;;;;;;;;;5089705;28;20824;-71
2021/12/15 04:45:34;;;;;;;16.67;9.97;;;;;;;;;;5088626;28;20461;-71
2021/12/15 04:48:00;;;;;;;16.47;10.53;;;;;;;;;;5087474;28;20448;-71
2021/12/15 04:50:27;;;;;;;11.20;9.33;;;;;;;;;;5089160;28;20477;-71
2021/12/15 04:52:58;;;;;;;13.63;9.33;;;;;;;;;;5087841;28;20487;-71
2021/12/15 04:55:25;;;;;;;13.50;9.57;;;;;;;;;;5089168;28;20437;-71
2021/12/15 04:57:51;;;;;;;13.53;9.20;;;;;;;;;;5087773;28;20609;-71
2021/12/15 05:00:21;;;;;;;17.27;9.67;;;;;;;;;;5086855;28;20534;-71
2021/12/15 05:02:47;;;;;;;11.60;9.50;;;;;;;;;;5088320;28;20436;-71
2021/12/15 05:05:14;;;;;;;14.63;9.27;;;;;;;;;;5087658;28;20427;-71
2021/12/15 05:07:40;;;;;;;21.73;10.40;;;;;;;;;;5086481;28;20816;-71
2021/12/15 05:10:08;;;;;;;16.50;10.47;;;;;;;;;;5087207;28;20428;-71
2021/12/15 05:12:34;;;;;;;15.57;9.83;;;;;;;;;;5104429;28;20803;-71
2021/12/15 05:15:00;;;;;;;12.47;9.30;;;;;;;;;;5086972;28;20433;-71
2021/12/15 05:17:26;;;;;;;14.67;9.93;;;;;;;;;;5088263;28;20566;-71
2021/12/15 05:19:57;;;;;;;17.20;10.40;;;;;;;;;;5086681;28;20451;-71
2021/12/15 05:22:23;;;;;;;14.53;10.30;;;;;;;;;;5087551;28;20449;-71
2021/12/15 05:24:49;;;;;;;15.40;11.20;;;;;;;;;;5089141;28;20408;-71
2021/12/15 05:27:16;;;;;;;14.20;11.30;;;;;;;;;;5088677;28;20608;-71
2021/12/15 05:29:43;;;;;;;12.40;10.23;;;;;;;;;;5087481;28;20483;-71
2021/12/15 05:32:10;;;;;;;12.77;10.60;;;;;;;;;;5089098;28;20440;-71
2021/12/15 05:34:36;;;;;;;16.47;11.97;;;;;;;;;;5106813;28;20435;-71
2021/12/15 05:37:03;;;;;;;17.63;11.17;;;;;;;;;;5090459;28;20954;-71
2021/12/15 05:39:29;;;;;;;16.77;10.00;;;;;;;;;;5091310;28;20439;-71
2021/12/15 05:41:55;;;;;;;14.10;10.40;;;;;;;;;;5092683;28;20436;-72
2021/12/15 05:44:23;;;;;;;17.43;11.27;;;;;;;;;;5091788;28;20428;-72
2021/12/15 05:46:50;;;;;;;17.33;11.60;;;;;;;;;;5092235;28;20440;-71
2021/12/15 05:49:15;;;;;;;14.13;10.77;;;;;;;;;;5089930;28;20440;-71
2021/12/15 05:51:42;;;;;;;17.87;11.17;;;;;;;;;;5092472;28;20468;-71
2021/12/15 05:54:08;;;;;;;18.33;10.47;;;;;;;;;;5092532;28;20519;-71
2021/12/15 05:56:34;;;;;;;13.67;11.10;;;;;;;;;;5092441;28;20488;-71
2021/12/15 05:59:01;;;;;;;18.60;11.77;;;;;;;;;;5092207;28;20491;-72
2021/12/15 06:01:28;;;;;;;13.70;10.20;;;;;;;;;;5089526;28;20850;-71
2021/12/15 06:03:54;;;;;;;18.47;12.17;;;;;;;;;;5092474;28;20439;-73
2021/12/15 06:06:20;;;;;;;16.40;10.80;;;;;;;;;;5091388;28;20589;-71
2021/12/15 06:08:46;;;;;;;15.20;10.43;;;;;;;;;;5091914;28;20908;-71
2021/12/15 06:11:12;;;;;;;18.30;10.33;;;;;;;;;;5091123;28;20485;-71
2021/12/15 06:13:38;;;;;;;18.17;10.03;;;;;;;;;;5091540;28;20436;-71
2021/12/15 06:16:05;;;;;;;13.60;9.53;;;;;;;;;;5092007;28;20508;-71
2021/12/15 06:18:32;;;;;;;14.83;9.63;;;;;;;;;;5090910;28;21037;-72
2021/12/15 06:20:58;;;;;;;13.53;9.87;;;;;;;;;;5090188;28;20424;-72
2021/12/15 06:23:24;;;;;;;15.80;10.57;;;;;;;;;;5090260;28;20428;-72
2021/12/15 06:25:58;;;;;;;14.70;9.07;;;;;;;;;;5092204;28;20909;-74
2021/12/15 06:28:26;;;;;;;13.30;9.53;;;;;;;;;;5090851;28;20424;-71
2021/12/15 06:30:52;;;;;;;17.23;9.80;;;;;;;;;;5090986;28;20958;-71
2021/12/15 06:33:19;;;;;;;14.30;10.93;;;;;;;;;;5090353;28;20442;-71
2021/12/15 06:35:52;;;;;;;15.07;10.77;;;;;;;;;;5088967;28;20437;-71
2021/12/15 06:38:19;;;;;;;15.00;10.90;;;;;;;;;;5090839;28;21070;-71
2021/12/15 06:40:45;;;;;;;15.30;11.20;;;;;;;;;;5091356;28;20504;-72
2021/12/15 06:43:11;;;;;;;14.33;10.60;;;;;;;;;;5092133;28;20428;-72
2021/12/15 06:45:51;;;;;;;15.60;10.53;;;;;;;;;;5090245;28;20512;-72
2021/12/15 06:59:15;;;;;;;18.53;11.13;;;;;;;;;;5090816;28;20474;-71
2021/12/15 07:01:42;;;;;;;12.37;10.20;;;;;;;;;;5090587;28;20436;-70
2021/12/15 07:04:08;;;;;;;15.83;9.70;;;;;;;;;;5089935;28;20420;-73
2021/12/15 07:06:34;;;;;;;12.90;9.70;;;;;;;;;;5090310;28;20429;-72
2021/12/15 07:09:00;;;;;;;16.37;10.00;;;;;;;;;;5090339;28;20482;-71
2021/12/15 07:11:26;;;;;;;18.43;11.30;;;;;;;;;;5090084;28;20436;-72
2021/12/15 07:13:52;;;;;;;21.53;10.97;;;;;;;;;;5089958;28;21133;-75
2021/12/15 07:16:19;;;;;;;16.27;9.53;;;;;;;;;;5091068;28;20558;-74
2021/12/15 07:19:04;;;;;;;17.27;11.30;;;;;;;;;;5089993;28;20920;-73
2021/12/15 07:21:35;;;;;;;16.20;9.23;;;;;;;;;;5090370;28;20928;-72
2021/12/15 07:24:01;;;;;;;13.00;9.87;;;;;;;;;;5089627;28;20443;-74
2021/12/15 07:26:27;;;;;;;15.97;10.50;;;;;;;;;;5090417;28;20425;-73
2021/12/15 07:28:56;;;;;;;11.57;8.63;;;;;;;;;;5089123;28;20429;-71
2021/12/15 07:31:22;;;;;;;14.65;10.10;;;;;;;;;;5088097;28;20439;-71
2021/12/15 07:33:48;;;;;;;14.73;10.00;;;;;;;;;;5090146;28;20258;-72
2021/12/15 07:36:16;;;;;;;17.17;10.30;;;;;;;;;;5089732;28;20613;-72
2021/12/15 07:38:42;;;;;;;16.97;9.80;;;;;;;;;;5088069;28;20448;-73
2021/12/15 07:41:23;;;;;;;16.63;9.80;;;;;;;;;;5088034;28;20586;-77
2021/12/15 07:43:49;;;;;;;24.53;11.27;;;;;;;;;;5087474;28;20440;-73
2021/12/15 07:46:15;;;;;;;21.87;12.67;;;;;;;;;;5088058;28;20832;-72
2021/12/15 07:48:41;;;;;;;20.30;11.73;;;;;;;;;;5087984;28;20454;-72
2021/12/15 07:51:08;;;;;;;24.43;13.60;;;;;;;;;;5089357;28;20916;-73
2021/12/15 07:53:34;;;;;;;23.83;13.57;;;;;;;;;;5088793;28;20487;-72
2021/12/15 07:56:00;;;;;;;26.77;13.10;;;;;;;;;;5090104;28;20421;-73
2021/12/15 07:58:27;;;;;;;17.40;12.23;;;;;;;;;;5089255;28;20505;-74
2021/12/15 08:00:54;;;;;;;23.90;11.67;;;;;;;;;;5090038;28;20433;-72
2021/12/15 08:03:20;;;;;;;16.97;11.97;;;;;;;;;;5105828;28;20451;-72
2021/12/15 08:05:48;;;;;;;17.87;12.30;;;;;;;;;;5089284;28;20515;-73
2021/12/15 08:08:14;;;;;;;19.00;12.67;;;;;;;;;;5088585;28;20436;-73
2021/12/15 08:10:42;;;;;;;15.57;11.07;;;;;;;;;;5088669;28;20428;-72
2021/12/15 08:13:07;;;;;;;20.40;11.43;;;;;;;;;;5089178;28;20440;-72
2021/12/15 08:15:33;;;;;;;15.93;10.90;;;;;;;;;;5105723;28;20425;-72
2021/12/15 08:17:59;;;;;;;15.37;11.40;;;;;;;;;;5089619;28;20537;-72
2021/12/15 08:20:28;;;;;;;15.73;9.83;;;;;;;;;;5088565;28;20444;-72
2021/12/15 08:22:54;;;;;;;14.50;10.37;;;;;;;;;;5089977;28;20433;-72
2021/12/15 08:25:20;;;;;;;18.33;10.60;;;;;;;;;;5090030;28;20408;-72
2021/12/15 08:27:48;;;;;;;20.00;10.57;;;;;;;;;;5090121;28;20432;-72
2021/12/15 08:30:20;;;;;;;11.43;8.73;;;;;;;;;;5089136;28;20408;-73
2021/12/15 08:32:50;;;;;;;16.27;10.53;;;;;;;;;;5088049;28;20923;-73
2021/12/15 08:35:18;;;;;;;14.43;9.93;;;;;;;;;;5089642;28;20421;-73
2021/12/15 08:37:44;;;;;;;13.70;9.90;;;;;;;;;;5088319;28;20484;-73
2021/12/15 08:40:11;;;;;;;14.40;8.90;;;;;;;;;;5089063;28;20424;-71
2021/12/15 08:42:37;;;;;;;15.50;9.20;;;;;;;;;;5089145;28;20491;-72
2021/12/15 08:45:04;;;;;;;11.47;9.00;;;;;;;;;;5090121;28;20418;-73
2021/12/15 08:47:30;;;;;;;13.20;8.87;;;;;;;;;;5089569;28;20428;-72
2021/12/15 08:49:56;;;;;;;17.10;9.27;;;;;;;;;;5088719;28;20435;-73
2021/12/15 08:52:22;;;;;;;16.43;10.60;;;;;;;;;;5089340;28;20472;-72
2021/12/15 08:54:48;;;;;;;24.87;10.03;;;;;;;;;;5089687;28;20780;-74
2021/12/15 08:57:14;;;;;;;17.77;9.47;;;;;;;;;;5089522;28;20548;-73
2021/12/15 08:59:40;;;;;;;12.67;10.20;;;;;;;;;;5089201;28;20424;-73
2021/12/15 09:02:06;;;;;;;12.00;8.20;;;;;;;;;;5087890;28;20535;-73
2021/12/15 09:04:32;;;;;;;22.10;10.40;;;;;;;;;;5088909;28;20481;-74
2021/12/15 09:06:58;;;;;;;15.80;10.67;;;;;;;;;;5089300;28;20866;-73
2021/12/15 09:09:25;;;;;;;11.93;8.67;;;;;;;;;;5091726;28;20413;-72
2021/12/15 09:11:53;;;;;;;12.60;9.40;;;;;;;;;;5093690;28;20900;-72
2021/12/15 09:14:19;;;;;;;17.37;8.97;;;;;;;;;;5093771;28;20528;-72
2021/12/15 09:16:47;;;;;;;14.00;9.40;;;;;;;;;;5093130;28;20570;-72
2021/12/15 09:19:13;;;;;;;17.90;9.50;;;;;;;;;;5092430;28;20941;-72
2021/12/15 09:21:39;;;;;;;12.87;9.90;;;;;;;;;;5093207;28;20436;-73
2021/12/15 09:24:06;;;;;;;15.43;8.70;;;;;;;;;;5093309;28;20515;-72
2021/12/15 09:26:33;;;;;;;14.90;8.37;;;;;;;;;;5093475;28;20478;-74
2021/12/15 09:29:00;;;;;;;9.47;7.27;;;;;;;;;;5090549;28;20440;-73
2021/12/15 09:31:26;;;;;;;12.40;8.63;;;;;;;;;;5090325;28;20448;-72
2021/12/15 09:33:53;;;;;;;11.40;7.63;;;;;;;;;;5108506;28;20439;-72
2021/12/15 09:36:20;;;;;;;8.70;6.90;;;;;;;;;;5092433;28;20463;-72
2021/12/15 09:38:50;;;;;;;12.07;8.70;;;;;;;;;;5092615;28;20523;-71
2021/12/15 09:41:17;;;;;;;12.50;8.53;;;;;;;;;;5093015;28;20504;-72
2021/12/15 09:43:44;;;;;;;13.53;10.00;;;;;;;;;;5092138;28;20444;-72
2021/12/15 09:46:26;;;;;;;15.90;10.10;;;;;;;;;;5092532;28;20485;-72
2021/12/15 09:57:27;;;;;;;14.80;8.13;;;;;;;;;;5086950;28;21080;-72
2021/12/15 10:10:45;;;;;;;11.93;8.30;;;;;;;;;;5090871;28;20436;-72
2021/12/15 10:19:18;;;;;;;9.67;7.20;;;;;;;;;;5090418;28;20470;-73
2021/12/15 10:21:54;;;;;;;8.43;7.53;;;;;;;;;;5089850;28;20416;-72
2021/12/15 10:24:26;;;;;;;10.33;7.73;;;;;;;;;;5090081;28;20995;-72
2021/12/15 10:26:59;;;;;;;18.77;8.77;;;;;;;;;;5090315;28;20413;-71
2021/12/15 10:29:28;;;;;;;12.43;8.57;;;;;;;;;;5089733;28;20423;-71
2021/12/15 10:32:02;;;;;;;12.03;7.97;;;;;;;;;;5089195;28;20467;-72
2021/12/15 10:34:29;;;;;;;20.20;11.00;;;;;;;;;;5090273;28;20420;-74
2021/12/15 10:36:55;;;;;;;16.50;11.17;;;;;;;;;;5105202;28;20998;-72
2021/12/15 10:39:22;;;;;;;15.40;10.50;;;;;;;;;;5091642;28;20509;-74
2021/12/15 10:41:52;;;;;;;14.93;9.10;;;;;;;;;;5090092;28;20416;-66
2021/12/15 10:44:21;;;;;;;13.30;7.50;;;;;;;;;;5091183;28;20444;-73
2021/12/15 10:46:49;;;;;;;8.27;7.20;;;;;;;;;;5089951;28;20915;-67
2021/12/15 10:49:16;;;;;;;16.40;8.97;;;;;;;;;;5090996;28;20428;-71
2021/12/15 10:51:47;;;;;;;7.83;6.90;;;;;;;;;;5089139;28;20790;-71
2021/12/15 10:54:15;;;;;;;9.20;7.30;;;;;;;;;;5090311;28;20432;-72
2021/12/15 10:57:00;;;;;;;8.77;6.60;;;;;;;;;;5088924;28;20486;-69
2021/12/15 10:59:30;;;;;;;11.18;7.90;;;;;;;;;;5089153;28;20411;-71
2021/12/15 11:01:56;;;;;;;7.27;6.57;;;;;;;;;;5088698;28;20261;-74
2021/12/15 11:04:27;;;;;;;12.73;10.20;;;;;;;;;;5090446;28;20574;-72
2021/12/15 11:07:08;;;;;;;13.00;8.00;;;;;;;;;;5089527;28;20409;-75
2021/12/15 11:09:38;;;;;;;8.53;6.00;;;;;;;;;;5090865;28;20425;-74
2021/12/15 11:12:08;;;;;;;23.07;15.60;;;;;;;;;;5089652;28;20408;-74
2021/12/15 11:14:36;;;;;;;7.87;7.07;;;;;;;;;;5090120;28;20501;-74
2021/12/15 11:17:22;;;;;;;10.20;7.60;;;;;;;;;;5089413;28;20512;-74
2021/12/15 11:19:48;;;;;;;13.17;8.00;;;;;;;;;;5089898;28;20409;-75
2021/12/15 11:22:32;;;;;;;11.40;8.43;;;;;;;;;;5089193;28;20535;-74
2021/12/15 11:24:59;;;;;;;9.17;6.37;;;;;;;;;;5089620;28;20432;-73
2021/12/15 11:27:26;;;;;;;9.70;7.80;;;;;;;;;;5090485;28;20413;-73
2021/12/15 11:29:52;;;;;;;20.47;11.33;;;;;;;;;;5090669;28;20451;-75
2021/12/15 11:32:37;;;;;;;7.03;6.33;;;;;;;;;;5088053;28;20424;-77
2021/12/15 11:35:08;;;;;;;11.97;8.53;;;;;;;;;;5088202;28;20946;-75
2021/12/15 11:37:54;;;;;;;19.87;11.83;;;;;;;;;;5090106;28;20468;-74
2021/12/15 11:40:26;;;;;;;12.00;8.40;;;;;;;;;;5089078;28;20428;-72
2021/12/15 11:42:52;;;;;;;11.37;8.43;;;;;;;;;;5090300;28;20429;-71
2021/12/15 11:45:18;;;;;;;14.30;7.90;;;;;;;;;;5089200;28;20773;-71
2021/12/15 11:47:44;;;;;;;12.73;7.90;;;;;;;;;;5089657;28;20444;-72
2021/12/15 11:50:15;;;;;;;12.63;8.23;;;;;;;;;;5088164;28;20428;-73
2021/12/15 11:52:43;;;;;;;13.80;8.53;;;;;;;;;;5089665;28;20541;-71
2021/12/15 11:55:22;;;;;;;16.03;7.97;;;;;;;;;;5087932;28;20459;-71
2021/12/15 11:57:48;;;;;;;13.40;10.60;;;;;;;;;;5089415;28;20475;-71
2021/12/15 12:00:21;;;;;;;12.47;8.47;;;;;;;;;;5088416;28;20433;-74
2021/12/15 12:02:54;;;;;;;14.50;8.70;;;;;;;;;;5089271;28;20503;-71
2021/12/15 12:05:20;;;;;;;13.73;9.10;;;;;;;;;;5086717;28;20569;-72
2021/12/15 12:07:47;;;;;;;12.43;8.53;;;;;;;;;;5088859;28;20551;-73
2021/12/15 12:10:14;;;;;;;14.37;8.90;;;;;;;;;;5086292;28;20432;-72
2021/12/15 12:12:50;;;;;;;14.40;9.77;;;;;;;;;;5089551;28;20413;-72
2021/12/15 12:15:17;;;;;;;14.53;9.20;;;;;;;;;;5087179;28;20432;-72
2021/12/15 12:17:45;;;;;;;16.80;10.30;;;;;;;;;;5089625;28;20476;-72
2021/12/15 12:20:12;;;;;;;12.10;9.50;;;;;;;;;;5085713;28;20427;-72
2021/12/15 12:22:39;;;;;;;16.27;9.30;;;;;;;;;;5089204;28;20420;-71
2021/12/15 12:25:08;;;;;;;14.20;10.00;;;;;;;;;;5088029;28;20426;-74
2021/12/15 12:27:35;;;;;;;23.17;12.60;;;;;;;;;;5089416;28;20429;-71
2021/12/15 12:30:04;;;;;;;25.50;12.73;;;;;;;;;;5086435;28;20459;-74
2021/12/15 12:32:30;;;;;;;25.37;14.00;;;;;;;;;;5089343;28;20462;-74
2021/12/15 12:34:56;;;;;;;34.20;12.73;;;;;;;;;;5087980;28;20425;-73
2021/12/15 12:37:22;;;;;;;21.93;11.90;;;;;;;;;;5089305;28;20480;-73
2021/12/15 12:39:53;;;;;;;26.43;14.97;;;;;;;;;;5086585;28;20515;-72
2021/12/15 12:42:34;;;;;;;29.70;15.27;;;;;;;;;;5089022;28;20519;-71
2021/12/15 12:45:11;;;;;;;21.37;10.53;;;;;;;;;;5088082;28;20419;-71
2021/12/15 12:47:43;;;;;;;20.47;12.30;;;;;;;;;;5089391;28;20421;-72
2021/12/15 12:50:52;;;;;;;25.50;13.40;;;;;;;;;;5086043;28;20466;-72
2021/12/15 12:59:26;;;;;;;22.53;14.27;;;;;;;;;;5088379;28;20515;-73
2021/12/15 13:01:52;;;;;;;20.80;14.40;;;;;;;;;;5088031;28;20416;-73
2021/12/15 13:04:18;;;;;;;25.83;12.73;;;;;;;;;;5103721;28;20519;-71
2021/12/15 13:06:45;;;;;;;17.80;11.30;;;;;;;;;;5088216;28;20920;-74
2021/12/15 13:09:16;;;;;;;24.67;14.43;;;;;;;;;;5103522;28;20994;-73
2021/12/15 13:11:46;;;;;;;25.37;11.43;;;;;;;;;;5088102;28;20427;-72
2021/12/15 13:14:15;;;;;;;17.40;11.50;;;;;;;;;;5089090;28;20417;-72
2021/12/15 13:16:43;;;;;;;15.30;10.63;;;;;;;;;;5088083;28;20558;-74
2021/12/15 13:19:15;;;;;;;20.67;12.90;;;;;;;;;;5086486;28;20428;-73
2021/12/15 13:21:41;;;;;;;17.57;10.40;;;;;;;;;;5088609;28;20482;-72
2021/12/15 13:28:39;;;;;;;22.13;11.77;;;;;;;;;;5088366;28;20753;-74
2021/12/15 13:30:01;;;;;;;34.23;18.07;;;;;;;;;;5086574;28;20412;-71
2021/12/15 13:32:30;;;;;;;21.17;13.77;;;;;;;;;;5088743;28;20428;-74
2021/12/15 13:34:57;;;;;;;18.40;12.80;;;;;;;;;;5087352;28;20420;-72
2021/12/15 13:38:02;;;;;;;17.10;10.43;;;;;;;;;;5088976;28;20516;-72
2021/12/15 13:40:46;;;;;;;16.63;11.27;;;;;;;;;;5021473;28;20450;-72
2021/12/15 13:43:31;;;;;;;18.07;11.53;;;;;;;;;;5026663;28;20431;-72
2021/12/15 13:45:57;;;;;;;26.60;14.20;;;;;;;;;;5070573;28;20478;-72
2021/12/15 13:48:46;;;;;;;16.13;9.83;;;;;;;;;;5087567;28;20455;-71
2021/12/15 13:51:12;;;;;;;17.57;12.00;;;;;;;;;;5088190;28;20413;-72
2021/12/15 13:53:38;;;;;;;31.13;17.03;;;;;;;;;;5088341;28;20832;-71
2021/12/15 13:56:04;;;;;;;23.77;13.80;;;;;;;;;;5090733;28;20530;-71
2021/12/15 13:58:32;;;;;;;15.27;10.50;;;;;;;;;;5091605;28;20484;-71
2021/12/15 14:01:00;;;;;;;29.97;14.13;;;;;;;;;;5090477;28;20710;-72
2021/12/15 14:03:28;;;;;;;18.73;11.33;;;;;;;;;;5091891;28;20431;-73
2021/12/15 14:06:03;;;;;;;24.10;14.13;;;;;;;;;;5090832;28;20423;-71
2021/12/15 14:08:40;;;;;;;31.87;13.60;;;;;;;;;;5107143;28;20511;-73
2021/12/15 14:11:08;;;;;;;16.70;11.47;;;;;;;;;;5091096;28;20424;-71
2021/12/15 14:13:39;;;;;;;27.20;14.60;;;;;;;;;;5091333;28;20487;-72
2021/12/15 14:16:06;;;;;;;25.73;16.53;;;;;;;;;;5090541;28;20425;-72
2021/12/15 14:18:33;;;;;;;20.00;13.30;;;;;;;;;;5089698;28;20429;-73
2021/12/15 14:21:01;;;;;;;26.20;14.70;;;;;;;;;;5090370;28;20420;-76
2021/12/15 14:23:37;;;;;;;17.33;11.03;;;;;;;;;;5091684;28;20783;-74
2021/12/15 14:26:06;;;;;;;17.30;10.20;;;;;;;;;;5090291;28;20416;-72
2021/12/15 14:28:34;;;;;;;16.17;10.07;;;;;;;;;;5091299;28;20472;-75
2021/12/15 14:30:59;;;;;;;18.43;10.90;;;;;;;;;;5090159;28;21029;-75
2021/12/15 14:33:27;;;;;;;19.40;12.30;;;;;;;;;;5091396;28;20427;-74
2021/12/15 14:35:55;;;;;;;24.50;14.77;;;;;;;;;;5090565;28;20447;-73
2021/12/15 14:38:35;;;;;;;16.97;11.07;;;;;;;;;;5090748;28;20479;-72
2021/12/15 14:41:05;;;;;;;13.83;10.50;;;;;;;;;;5089634;28;20519;-74
2021/12/15 14:43:31;;;;;;;16.50;9.67;;;;;;;;;;5089860;28;20486;-75
2021/12/15 14:45:57;;;;;;;19.77;9.90;;;;;;;;;;5090361;28;20827;-76
2021/12/15 14:48:23;;;;;;;16.73;9.57;;;;;;;;;;5090073;28;20438;-75
2021/12/15 14:50:50;;;;;;;22.00;11.27;;;;;;;;;;5090152;28;20424;-75
2021/12/15 14:53:15;;;;;;;18.17;10.40;;;;;;;;;;5091236;28;20482;-75
2021/12/15 14:55:42;;;;;;;22.50;14.13;;;;;;;;;;5089415;28;20417;-75
2021/12/15 14:58:09;;;;;;;16.90;11.40;;;;;;;;;;5090331;28;20478;-75
2021/12/15 15:00:39;;;;;;;18.80;10.37;;;;;;;;;;5089707;28;20425;-75
2021/12/15 15:03:06;;;;;;;13.60;10.07;;;;;;;;;;5090663;28;20424;-75
2021/12/15 15:05:34;;;;;;;15.70;9.73;;;;;;;;;;5088768;28;20420;-73
2021/12/15 15:08:03;;;;;;;15.50;8.30;;;;;;;;;;5105741;28;20427;-75
2021/12/15 15:10:32;;;;;;;13.90;8.93;;;;;;;;;;5088894;28;20417;-75
2021/12/15 15:12:59;;;;;;;14.70;8.87;;;;;;;;;;5090848;28;20441;-75
2021/12/15 15:15:29;;;;;;;11.23;7.80;;;;;;;;;;5089549;28;20504;-75
2021/12/15 15:20:58;;;;;;;23.43;11.60;;;;;;;;;;5085271;28;20429;-73
2021/12/15 15:23:26;;;;;;;17.97;10.70;;;;;;;;;;5089755;28;20431;-73
2021/12/15 15:25:54;;;;;;;23.67;10.23;;;;;;;;;;5088933;28;20432;-73
2021/12/15 15:28:22;;;;;;;18.83;9.63;;;;;;;;;;5089905;28;20783;-73
2021/12/15 15:30:48;;;;;;;15.77;11.63;;;;;;;;;;5090450;28;20416;-74
2021/12/15 15:33:16;;;;;;;18.57;10.50;;;;;;;;;;5090460;28;20503;-72
2021/12/15 15:35:44;;;;;;;18.87;11.37;;;;;;;;;;5089314;28;20412;-73
2021/12/15 15:38:12;;;;;;;18.23;11.70;;;;;;;;;;5089687;28;21200;-75
2021/12/15 15:40:40;;;;;;;26.63;11.67;;;;;;;;;;5088518;28;20955;-74
2021/12/15 15:43:09;;;;;;;25.60;10.27;;;;;;;;;;5090339;28;20421;-76
2021/12/15 15:45:37;;;;;;;20.00;10.90;;;;;;;;;;5088844;28;20900;-76
2021/12/15 15:48:05;;;;;;;35.13;12.67;;;;;;;;;;5089514;28;20482;-76
2021/12/15 15:50:31;;;;;;;17.70;10.80;;;;;;;;;;5087331;28;20420;-75